createdAt,value
2018-09-25T00:01:23.537Z,3.37
2018-09-25T00:03:58.066Z,3.87
2018-09-25T00:06:32.469Z,3.73
2018-09-25T00:09:06.996Z,3.23
2018-09-25T00:11:41.278Z,3.60
2018-09-25T00:14:16.029Z,3.40
2018-09-25T00:16:50.604Z,3.10
2018-09-25T00:19:25.092Z,3.63
2018-09-25T00:21:59.382Z,4.03
2018-09-25T00:24:33.731Z,3.83
2018-09-25T00:27:08.525Z,4.37
2018-09-25T00:29:43.434Z,3.80
2018-09-25T00:32:17.885Z,3.80
2018-09-25T00:34:52.454Z,4.50
2018-09-25T00:37:27.853Z,4.23
2018-09-25T00:40:03.146Z,4.33
2018-09-25T00:42:37.663Z,3.97
2018-09-25T00:45:12.629Z,3.77
2018-09-25T00:47:46.994Z,4.10
2018-09-25T00:50:21.739Z,3.63
2018-09-25T00:52:56.451Z,3.67
2018-09-25T00:55:31.192Z,4.17
2018-09-25T00:58:05.675Z,4.90
2018-09-25T01:00:40.772Z,5.10
2018-09-25T01:03:15.547Z,4.10
2018-09-25T01:05:50.103Z,4.60
2018-09-25T01:08:24.938Z,4.23
2018-09-25T01:10:59.552Z,4.03
2018-09-25T01:13:33.914Z,4.07
2018-09-25T01:16:09.531Z,4.40
2018-09-25T01:18:44.250Z,4.37
2018-09-25T01:21:19.507Z,4.33
2018-09-25T01:23:54.329Z,4.03
2018-09-25T01:26:29.161Z,4.00
2018-09-25T01:29:03.864Z,4.20
2018-09-25T01:31:38.836Z,3.70
2018-09-25T01:34:13.590Z,4.47
2018-09-25T01:36:48.465Z,4.50
2018-09-25T01:39:22.852Z,4.93
2018-09-25T01:41:57.425Z,4.17
2018-09-25T01:44:32.095Z,4.10
2018-09-25T01:47:06.879Z,5.70
2018-09-25T01:49:41.215Z,4.23
2018-09-25T01:52:15.904Z,4.10
2018-09-25T01:54:52.008Z,4.83
2018-09-25T01:57:27.448Z,4.23
2018-09-25T02:00:01.743Z,4.83
2018-09-25T02:02:36.221Z,3.93
2018-09-25T02:05:10.750Z,3.93
2018-09-25T02:07:45.020Z,4.10
2018-09-25T02:10:19.753Z,4.73
2018-09-25T02:12:54.240Z,4.60
2018-09-25T02:15:28.542Z,4.57
2018-09-25T02:18:03.015Z,4.73
2018-09-25T02:20:37.336Z,5.37
2018-09-25T02:23:11.853Z,5.27
2018-09-25T02:25:46.394Z,5.23
2018-09-25T02:28:20.897Z,5.10
2018-09-25T02:30:55.923Z,4.57
2018-09-25T02:33:30.315Z,4.10
2018-09-25T02:36:04.636Z,4.53
2018-09-25T02:38:38.966Z,4.53
2018-09-25T02:41:13.774Z,4.90
2018-09-25T02:43:48.264Z,4.67
2018-09-25T02:46:22.675Z,3.90
2018-09-25T02:48:56.998Z,4.50
2018-09-25T02:51:31.853Z,3.87
2018-09-25T02:54:06.275Z,4.97
2018-09-25T02:56:40.869Z,4.20
2018-09-25T02:59:15.119Z,4.27
2018-09-25T03:01:49.643Z,4.10
2018-09-25T03:04:23.967Z,4.17
2018-09-25T03:06:58.308Z,3.73
2018-09-25T03:09:33.102Z,4.23
2018-09-25T03:12:07.821Z,4.30
2018-09-25T03:14:42.614Z,4.50
2018-09-25T03:17:16.954Z,3.73
2018-09-25T03:19:51.336Z,4.30
2018-09-25T03:22:26.094Z,4.03
2018-09-25T03:25:00.462Z,5.00
2018-09-25T03:27:34.814Z,4.10
2018-09-25T03:30:09.360Z,4.17
2018-09-25T03:32:43.955Z,4.20
2018-09-25T03:35:18.444Z,4.50
2018-09-25T03:37:53.031Z,3.90
2018-09-25T03:40:27.355Z,4.20
2018-09-25T03:43:01.606Z,4.30
2018-09-25T03:45:36.055Z,3.70
2018-09-25T03:48:10.508Z,4.20
2018-09-25T03:50:45.285Z,3.70
2018-09-25T03:53:19.838Z,3.90
2018-09-25T03:55:54.337Z,3.93
2018-09-25T03:58:28.822Z,3.80
2018-09-25T04:01:03.349Z,4.43
2018-09-25T04:03:38.117Z,4.10
2018-09-25T04:06:12.864Z,3.60
2018-09-25T04:08:47.174Z,3.30
2018-09-25T04:11:21.423Z,4.13
2018-09-25T04:13:55.634Z,4.00
2018-09-25T04:16:30.349Z,5.10
2018-09-25T04:19:04.870Z,3.87
2018-09-25T04:21:39.270Z,4.40
2018-09-25T04:24:13.941Z,4.20
2018-09-25T04:26:48.462Z,4.87
2018-09-25T04:29:23.000Z,4.10
2018-09-25T04:31:57.414Z,3.60
2018-09-25T04:34:32.043Z,5.00
2018-09-25T04:37:06.843Z,4.40
2018-09-25T04:39:41.262Z,4.90
2018-09-25T04:42:16.451Z,3.80
2018-09-25T04:44:50.833Z,4.33
2018-09-25T04:47:25.516Z,3.93
2018-09-25T04:49:59.987Z,4.20
2018-09-25T04:52:34.350Z,4.10
2018-09-25T04:55:08.654Z,4.07
2018-09-25T04:57:43.102Z,4.87
2018-09-25T05:00:17.588Z,4.57
2018-09-25T05:02:52.104Z,8.87
2018-09-25T05:05:27.361Z,8.53
2018-09-25T05:08:01.791Z,7.10
2018-09-25T05:10:36.092Z,4.53
2018-09-25T05:13:10.661Z,5.80
2018-09-25T05:15:45.076Z,5.67
2018-09-25T05:18:19.463Z,5.37
2018-09-25T05:20:53.917Z,7.23
2018-09-25T05:23:28.439Z,5.50
2018-09-25T05:26:02.896Z,5.10
2018-09-25T05:28:37.272Z,5.43
2018-09-25T05:31:11.843Z,5.07
2018-09-25T05:33:46.298Z,4.87
2018-09-25T05:36:21.388Z,4.00
2018-09-25T05:38:57.551Z,5.07
2018-09-25T05:41:32.032Z,4.30
2018-09-25T05:44:06.816Z,4.90
2018-09-25T05:46:41.662Z,4.00
2018-09-25T05:49:16.550Z,3.63
2018-09-25T05:51:53.529Z,4.93
2018-09-25T05:54:27.938Z,3.90
2018-09-25T05:57:02.248Z,5.97
2018-09-25T05:59:36.797Z,4.50
2018-09-25T06:02:11.164Z,4.60
2018-09-25T06:04:45.952Z,4.00
2018-09-25T06:07:20.415Z,5.50
2018-09-25T06:09:54.980Z,5.37
2018-09-25T06:12:29.526Z,4.10
2018-09-25T06:15:04.476Z,5.10
2018-09-25T06:17:39.030Z,4.40
2018-09-25T06:20:13.707Z,4.63
2018-09-25T06:22:48.053Z,3.83
2018-09-25T06:25:22.730Z,4.63
2018-09-25T06:27:56.988Z,4.50
2018-09-25T06:30:31.802Z,4.67
2018-09-25T06:33:06.176Z,3.70
2018-09-25T06:35:40.832Z,3.70
2018-09-25T06:38:15.594Z,3.80
2018-09-25T06:40:50.345Z,3.53
2018-09-25T06:43:24.630Z,3.30
2018-09-25T06:45:58.931Z,3.30
2018-09-25T06:48:33.372Z,3.40
2018-09-25T06:51:07.878Z,3.63
2018-09-25T06:53:42.207Z,3.60
2018-09-25T06:56:16.566Z,3.33
2018-09-25T06:58:50.842Z,2.70
2018-09-25T07:01:26.210Z,3.33
2018-09-25T07:04:00.638Z,2.57
2018-09-25T07:06:35.008Z,2.60
2018-09-25T07:09:10.881Z,2.47
2018-09-25T07:11:45.340Z,2.20
2018-09-25T07:14:19.859Z,2.67
2018-09-25T07:16:54.192Z,2.13
2018-09-25T07:19:29.244Z,2.70
2018-09-25T07:22:03.585Z,2.20
2018-09-25T07:24:38.072Z,1.97
2018-09-25T07:27:13.652Z,1.80
2018-09-25T07:29:48.018Z,2.37
2018-09-25T07:32:22.702Z,2.70
2018-09-25T07:34:57.020Z,2.60
2018-09-25T07:37:31.724Z,1.73
2018-09-25T07:40:06.174Z,2.10
2018-09-25T07:42:40.715Z,1.90
2018-09-25T07:45:15.714Z,1.73
2018-09-25T07:47:50.541Z,1.87
2018-09-25T07:50:24.942Z,2.07
2018-09-25T07:52:59.597Z,1.73
2018-09-25T07:55:34.521Z,1.97
2018-09-25T07:58:09.256Z,1.50
2018-09-25T08:00:43.675Z,1.67
2018-09-25T08:03:18.418Z,1.77
2018-09-25T08:05:53.186Z,1.70
2018-09-25T08:08:27.979Z,2.40
2018-09-25T08:11:02.292Z,1.53
2018-09-25T08:13:37.002Z,2.30
2018-09-25T08:16:12.321Z,2.37
2018-09-25T08:18:47.028Z,1.90
2018-09-25T08:21:21.613Z,2.00
2018-09-25T08:23:56.239Z,2.20
2018-09-25T08:26:30.716Z,2.00
2018-09-25T08:29:05.376Z,2.07
2018-09-25T08:31:39.764Z,2.43
2018-09-25T08:34:15.477Z,2.10
2018-09-25T08:36:49.794Z,2.20
2018-09-25T08:39:24.689Z,1.77
2018-09-25T08:41:58.951Z,2.00
2018-09-25T08:44:33.249Z,2.00
2018-09-25T08:47:07.757Z,2.40
2018-09-25T08:49:42.221Z,2.07
2018-09-25T08:52:16.720Z,1.97
2018-09-25T08:54:51.913Z,1.50
2018-09-25T08:57:26.347Z,1.83
2018-09-25T09:00:00.793Z,1.47
2018-09-25T09:02:35.265Z,2.00
2018-09-25T09:05:10.043Z,1.27
2018-09-25T09:07:44.369Z,1.53
2018-09-25T09:10:18.835Z,1.80
2018-09-25T09:12:53.283Z,2.00
2018-09-25T09:15:27.742Z,1.80
2018-09-25T09:18:02.471Z,2.50
2018-09-25T09:20:37.013Z,1.37
2018-09-25T09:23:11.431Z,1.63
2018-09-25T09:25:45.739Z,1.60
2018-09-25T09:28:20.186Z,1.50
2018-09-25T09:30:54.489Z,2.27
2018-09-25T09:33:28.696Z,1.43
2018-09-25T09:36:03.215Z,1.80
2018-09-25T09:38:37.824Z,1.27
2018-09-25T09:41:12.429Z,1.90
2018-09-25T09:43:46.664Z,2.63
2018-09-25T09:46:20.913Z,1.57
2018-09-25T09:48:55.261Z,1.23
2018-09-25T09:51:29.874Z,1.07
2018-09-25T09:54:04.293Z,1.57
2018-09-25T09:56:39.137Z,1.90
2018-09-25T09:59:14.040Z,1.50
2018-09-25T10:01:48.439Z,1.37
2018-09-25T10:04:22.904Z,2.13
2018-09-25T10:06:57.651Z,1.77
2018-09-25T10:09:32.133Z,1.87
2018-09-25T10:12:06.518Z,1.20
2018-09-25T10:14:41.090Z,1.30
2018-09-25T10:17:15.542Z,1.37
2018-09-25T10:19:50.135Z,1.60
2018-09-25T10:22:24.413Z,1.20
2018-09-25T10:24:58.904Z,1.33
2018-09-25T10:27:33.493Z,1.00
2018-09-25T10:30:08.301Z,1.53
2018-09-25T10:32:42.809Z,1.57
2018-09-25T10:35:17.168Z,1.00
2018-09-25T10:37:51.623Z,1.13
2018-09-25T10:40:26.066Z,1.03
2018-09-25T10:43:00.366Z,1.20
2018-09-25T10:45:36.223Z,1.50
2018-09-25T10:48:10.725Z,1.50
2018-09-25T10:50:45.374Z,1.43
2018-09-25T10:53:20.041Z,1.47
2018-09-25T10:55:55.229Z,1.30
2018-09-25T10:58:29.821Z,1.60
2018-09-25T11:01:04.209Z,1.30
2018-09-25T11:03:39.040Z,1.10
2018-09-25T11:06:13.685Z,0.80
2018-09-25T11:08:48.230Z,1.43
2018-09-25T11:11:22.696Z,1.30
2018-09-25T11:13:57.499Z,1.03
2018-09-25T11:16:32.147Z,1.30
2018-09-25T11:19:06.962Z,0.87
2018-09-25T11:21:41.518Z,1.53
2018-09-25T11:24:16.015Z,1.10
2018-09-25T11:26:50.881Z,1.03
2018-09-25T11:29:25.295Z,1.23
2018-09-25T11:31:59.633Z,1.10
2018-09-25T11:34:33.915Z,1.63
2018-09-25T11:37:08.534Z,0.97
2018-09-25T11:39:43.250Z,1.30
2018-09-25T11:42:17.814Z,1.13
2018-09-25T11:44:52.467Z,1.00
2018-09-25T11:47:26.789Z,1.40
2018-09-25T11:50:01.525Z,1.20
2018-09-25T11:52:36.017Z,1.20
2018-09-25T11:55:10.751Z,1.57
2018-09-25T11:57:45.040Z,1.10
2018-09-25T12:00:19.639Z,1.27
2018-09-25T12:02:54.324Z,1.40
2018-09-25T12:05:29.013Z,1.37
2018-09-25T12:08:03.398Z,1.10
2018-09-25T12:10:37.913Z,1.17
2018-09-25T12:13:12.404Z,1.27
2018-09-25T12:15:47.020Z,0.90
2018-09-25T12:18:21.375Z,0.87
2018-09-25T12:20:56.026Z,0.63
2018-09-25T12:23:30.437Z,0.80
2018-09-25T12:26:04.670Z,0.93
2018-09-25T12:28:39.127Z,1.40
2018-09-25T12:31:13.754Z,1.20
2018-09-25T12:33:48.573Z,1.20
2018-09-25T12:36:23.025Z,1.90
2018-09-25T12:38:57.524Z,1.00
2018-09-25T12:41:32.215Z,0.83
2018-09-25T12:44:06.667Z,1.20
2018-09-25T12:46:41.070Z,1.33
2018-09-25T12:49:15.540Z,1.00
2018-09-25T12:51:49.747Z,1.07
2018-09-25T12:54:24.009Z,1.00
2018-09-25T12:56:58.336Z,0.93
2018-09-25T12:59:32.677Z,1.40
2018-09-25T13:02:07.146Z,1.10
2018-09-25T13:04:41.602Z,1.20
2018-09-25T13:07:15.833Z,1.10
2018-09-25T13:09:50.079Z,1.50
2018-09-25T13:12:24.411Z,1.03
2018-09-25T13:14:58.825Z,1.10
2018-09-25T13:17:33.242Z,1.30
2018-09-25T13:20:07.740Z,1.47
2018-09-25T13:22:42.182Z,1.50
2018-09-25T13:25:16.701Z,1.40
2018-09-25T13:27:51.207Z,0.87
2018-09-25T13:30:25.503Z,1.10
2018-09-25T13:33:00.019Z,1.10
2018-09-25T13:35:34.418Z,1.20
2018-09-25T13:38:08.908Z,0.70
2018-09-25T13:40:43.298Z,1.23
2018-09-25T13:43:17.645Z,1.00
2018-09-25T13:45:52.158Z,1.00
2018-09-25T13:48:26.453Z,1.30
2018-09-25T13:51:00.930Z,1.03
2018-09-25T13:53:35.251Z,1.23
2018-09-25T13:56:10.100Z,1.40
2018-09-25T13:58:44.341Z,1.50
2018-09-25T14:01:18.807Z,1.40
2018-09-25T14:03:53.562Z,1.10
2018-09-25T14:06:28.045Z,0.90
2018-09-25T14:09:02.465Z,1.30
2018-09-25T14:11:36.788Z,1.40
2018-09-25T14:14:11.295Z,1.17
2018-09-25T14:16:46.003Z,1.10
2018-09-25T14:19:21.813Z,1.00
2018-09-25T14:21:56.288Z,1.07
2018-09-25T14:24:30.730Z,1.20
2018-09-25T14:27:05.156Z,1.20
2018-09-25T14:29:39.560Z,1.10
2018-09-25T14:32:14.322Z,1.10
2018-09-25T14:34:48.761Z,2.00
2018-09-25T14:37:23.045Z,1.27
2018-09-25T14:39:57.653Z,1.20
2018-09-25T14:42:32.033Z,1.17
2018-09-25T14:45:07.717Z,1.00
2018-09-25T14:47:42.170Z,0.93
2018-09-25T14:50:16.853Z,1.00
2018-09-25T14:52:51.355Z,0.70
2018-09-25T14:55:26.190Z,1.00
2018-09-25T14:58:00.732Z,0.67
2018-09-25T15:00:35.527Z,1.00
2018-09-25T15:03:09.897Z,1.30
2018-09-25T15:05:44.554Z,1.30
2018-09-25T15:08:19.039Z,1.40
2018-09-25T15:10:53.636Z,1.17
2018-09-25T15:13:27.881Z,1.40
2018-09-25T15:16:02.280Z,1.10
2018-09-25T15:18:36.842Z,1.13
2018-09-25T15:21:11.364Z,1.30
2018-09-25T15:23:45.584Z,2.00
2018-09-25T15:26:20.022Z,1.43
2018-09-25T15:28:54.278Z,1.37
2018-09-25T15:31:28.693Z,1.40
2018-09-25T15:34:03.317Z,1.50
2018-09-25T15:36:37.850Z,1.57
2018-09-25T15:39:14.535Z,1.10
2018-09-25T15:41:49.054Z,1.00
2018-09-25T15:44:23.465Z,1.40
2018-09-25T15:46:57.908Z,1.23
2018-09-25T15:49:32.362Z,1.60
2018-09-25T15:52:06.917Z,1.53
2018-09-25T15:54:41.448Z,1.63
2018-09-25T15:57:16.113Z,1.50
2018-09-25T15:59:50.456Z,1.67
2018-09-25T16:02:24.812Z,1.97
2018-09-25T16:04:59.282Z,1.53
2018-09-25T16:07:33.938Z,2.90
2018-09-25T16:10:08.469Z,2.60
2018-09-25T16:12:43.022Z,2.43
2018-09-25T16:15:17.292Z,1.57
2018-09-25T16:17:51.794Z,2.13
2018-09-25T16:20:26.561Z,1.87
2018-09-25T16:23:00.991Z,1.30
2018-09-25T16:25:35.568Z,1.57
2018-09-25T16:28:10.025Z,1.60
2018-09-25T16:30:44.670Z,2.17
2018-09-25T16:33:19.030Z,1.60
2018-09-25T16:35:53.617Z,1.43
2018-09-25T16:38:27.860Z,1.90
2018-09-25T16:41:02.623Z,1.80
2018-09-25T16:43:37.095Z,2.23
2018-09-25T16:46:12.284Z,1.80
2018-09-25T16:48:46.731Z,2.03
2018-09-25T16:51:21.106Z,2.70
2018-09-25T16:53:55.398Z,1.80
2018-09-25T16:56:29.862Z,2.60
2018-09-25T16:59:04.358Z,3.00
2018-09-25T17:01:38.784Z,2.63
2018-09-25T17:04:13.318Z,1.93
2018-09-25T17:06:47.578Z,2.10
2018-09-25T17:09:22.092Z,2.30
2018-09-25T17:11:56.504Z,3.37
2018-09-25T17:14:30.939Z,2.43
2018-09-25T17:17:05.454Z,2.40
2018-09-25T17:19:39.981Z,2.17
2018-09-25T17:22:14.411Z,2.40
2018-09-25T17:24:48.691Z,2.17
2018-09-25T17:27:23.037Z,1.93
2018-09-25T17:29:57.430Z,1.67
2018-09-25T17:32:32.145Z,2.00
2018-09-25T17:35:06.768Z,2.47
2018-09-25T17:37:41.106Z,1.80
2018-09-25T17:40:15.768Z,2.30
2018-09-25T17:42:51.060Z,1.80
2018-09-25T17:45:25.740Z,4.80
2018-09-25T17:48:00.004Z,2.77
2018-09-25T17:50:35.135Z,3.10
2018-09-25T17:53:09.542Z,1.83
2018-09-25T17:55:44.136Z,2.10
2018-09-25T17:58:18.421Z,2.60
2018-09-25T18:00:53.180Z,2.43
2018-09-25T18:03:27.586Z,2.10
2018-09-25T18:06:03.153Z,2.50
2018-09-25T18:08:37.633Z,2.33
2018-09-25T18:11:12.235Z,2.70
2018-09-25T18:13:46.634Z,2.73
2018-09-25T18:16:21.748Z,3.30
2018-09-25T18:18:56.204Z,5.80
2018-09-25T18:21:30.948Z,6.03
2018-09-25T18:24:05.271Z,5.90
2018-09-25T18:26:39.944Z,6.77
2018-09-25T18:29:14.956Z,5.60
2018-09-25T18:31:49.701Z,8.10
2018-09-25T18:34:24.170Z,11.40
2018-09-25T18:36:58.950Z,12.63
2018-09-25T18:39:33.502Z,10.10
2018-09-25T18:42:08.194Z,8.73
2018-09-25T18:44:42.579Z,11.30
2018-09-25T18:47:16.796Z,11.13
2018-09-25T18:49:51.021Z,9.40
2018-09-25T18:52:25.786Z,10.57
2018-09-25T18:55:00.145Z,8.80
2018-09-25T18:57:34.526Z,6.93
2018-09-25T19:00:08.976Z,5.30
2018-09-25T19:02:43.606Z,6.30
2018-09-25T19:05:18.344Z,5.83
2018-09-25T19:07:52.657Z,5.60
2018-09-25T19:10:27.159Z,5.90
2018-09-25T19:13:01.570Z,5.37
2018-09-25T19:15:38.255Z,5.47
2018-09-25T19:18:13.094Z,6.27
2018-09-25T19:20:47.665Z,5.70
2018-09-25T19:23:22.017Z,6.00
2018-09-25T19:25:56.491Z,5.83
2018-09-25T19:28:30.775Z,6.17
2018-09-25T19:31:05.296Z,6.60
2018-09-25T19:33:39.643Z,5.77
2018-09-25T19:36:14.001Z,7.20
2018-09-25T19:38:48.507Z,7.90
2018-09-25T19:41:23.782Z,5.80
2018-09-25T19:43:58.188Z,5.87
2018-09-25T19:46:32.691Z,5.80
2018-09-25T19:49:07.334Z,5.10
2018-09-25T19:51:41.851Z,5.10
2018-09-25T19:54:16.333Z,4.90
2018-09-25T19:56:50.729Z,4.60
2018-09-25T19:59:25.513Z,4.50
2018-09-25T20:02:00.048Z,6.40
2018-09-25T20:04:34.373Z,5.40
2018-09-25T20:07:09.173Z,3.80
2018-09-25T20:09:43.640Z,3.90
2018-09-25T20:12:18.049Z,4.03
2018-09-25T20:14:52.458Z,4.13
2018-09-25T20:17:26.896Z,4.47
2018-09-25T20:20:01.198Z,4.20
2018-09-25T20:22:35.630Z,3.50
2018-09-25T20:25:10.191Z,3.83
2018-09-25T20:27:44.493Z,4.87
2018-09-25T20:30:19.186Z,4.10
2018-09-25T20:32:53.680Z,3.27
2018-09-25T20:35:28.346Z,3.70
2018-09-25T20:38:02.878Z,3.70
2018-09-25T20:40:37.348Z,4.03
2018-09-25T20:43:12.105Z,4.23
2018-09-25T20:45:46.263Z,4.20
2018-09-25T20:48:20.725Z,4.20
2018-09-25T20:50:55.212Z,4.47
2018-09-25T20:53:29.685Z,4.90
2018-09-25T20:56:04.154Z,6.40
2018-09-25T20:58:38.453Z,5.60
2018-09-25T21:01:13.076Z,5.47
2018-09-25T21:03:47.534Z,5.87
2018-09-25T21:06:21.811Z,5.80
2018-09-25T21:08:56.272Z,5.30
2018-09-25T21:11:30.721Z,4.27
2018-09-25T21:14:05.130Z,5.30
2018-09-25T21:16:39.611Z,4.97
2018-09-25T21:19:14.035Z,5.53
2018-09-25T21:21:48.833Z,5.20
2018-09-25T21:24:23.160Z,5.17
2018-09-25T21:26:57.500Z,5.33
2018-09-25T21:29:32.278Z,4.70
2018-09-25T21:32:07.025Z,5.03
2018-09-25T21:34:41.570Z,5.40
2018-09-25T21:37:16.366Z,4.70
2018-09-25T21:39:50.788Z,4.17
2018-09-25T21:42:25.534Z,5.20
2018-09-25T21:45:00.062Z,3.83
2018-09-25T21:47:34.682Z,4.20
2018-09-25T21:50:09.227Z,4.13
2018-09-25T21:52:50.889Z,4.70
2018-09-25T21:55:25.163Z,4.60
2018-09-25T21:57:59.782Z,4.50
2018-09-25T22:00:34.267Z,4.70
2018-09-25T22:03:09.296Z,4.87
2018-09-25T22:05:43.821Z,5.03
2018-09-25T22:08:18.540Z,5.50
2018-09-25T22:10:52.900Z,5.33
2018-09-25T22:13:27.597Z,5.10
2018-09-25T22:16:01.871Z,5.83
2018-09-25T22:18:36.404Z,5.10
2018-09-25T22:21:10.739Z,4.13
2018-09-25T22:23:45.170Z,5.00
2018-09-25T22:26:19.546Z,5.30
2018-09-25T22:28:54.053Z,4.73
2018-09-25T22:31:28.549Z,4.27
2018-09-25T22:34:10.696Z,4.80
2018-09-25T22:36:45.002Z,5.03
2018-09-25T22:39:19.425Z,4.60
2018-09-25T22:41:53.818Z,5.27
2018-09-25T22:44:28.139Z,5.10
2018-09-25T22:47:02.674Z,6.00
2018-09-25T22:49:37.167Z,5.20
2018-09-25T22:52:11.835Z,4.50
2018-09-25T22:54:46.079Z,4.57
2018-09-25T22:57:20.823Z,4.40
2018-09-25T22:59:55.050Z,4.30
2018-09-25T23:02:29.371Z,4.77
2018-09-25T23:05:03.845Z,5.23
2018-09-25T23:07:38.255Z,4.30
2018-09-25T23:10:12.724Z,4.37
2018-09-25T23:12:47.469Z,4.83
2018-09-25T23:15:22.313Z,4.80
2018-09-25T23:17:56.696Z,4.70
2018-09-25T23:20:31.111Z,4.90
2018-09-25T23:23:05.522Z,4.63
2018-09-25T23:25:39.973Z,4.80
2018-09-25T23:28:14.364Z,5.00
2018-09-25T23:30:48.689Z,5.37
2018-09-25T23:33:23.321Z,4.80
2018-09-25T23:35:57.634Z,4.43
2018-09-25T23:38:32.111Z,5.20
2018-09-25T23:41:06.540Z,5.20
2018-09-25T23:43:40.891Z,5.17
2018-09-25T23:46:33.509Z,5.53
2018-09-25T23:49:08.102Z,6.13
2018-09-25T23:51:40.728Z,6.33
2018-09-25T23:54:21.232Z,5.03
2018-09-25T23:57:07.920Z,5.70
